createdAt,value
2017-10-31T00:01:02.886Z,5.90
2017-10-31T00:03:29.903Z,4.00
2017-10-31T00:05:56.151Z,4.63
2017-10-31T00:08:23.226Z,5.43
2017-10-31T00:10:49.334Z,2.63
2017-10-31T00:13:16.226Z,1.60
2017-10-31T00:15:42.484Z,4.33
2017-10-31T00:18:09.380Z,7.93
2017-10-31T00:20:35.539Z,3.30
2017-10-31T00:23:01.732Z,2.13
2017-10-31T00:25:27.912Z,5.80
2017-10-31T00:27:54.854Z,1.70
2017-10-31T00:30:21.702Z,1.40
2017-10-31T00:32:48.594Z,7.80
2017-10-31T00:35:14.661Z,27.10
2017-10-31T00:37:40.843Z,39.63
2017-10-31T00:40:07.005Z,31.03
2017-10-31T00:42:33.214Z,26.43
2017-10-31T00:44:59.349Z,53.33
2017-10-31T00:47:26.469Z,44.97
2017-10-31T00:49:52.646Z,34.70
2017-10-31T00:52:18.800Z,23.07
2017-10-31T00:54:45.003Z,19.23
2017-10-31T00:57:11.098Z,10.40
2017-10-31T00:59:37.599Z,5.47
2017-10-31T01:02:03.809Z,7.33
2017-10-31T01:04:29.940Z,5.57
2017-10-31T01:06:56.118Z,17.33
2017-10-31T01:09:23.014Z,15.53
2017-10-31T01:11:49.165Z,5.57
2017-10-31T01:14:15.380Z,4.00
2017-10-31T01:16:41.515Z,10.67
2017-10-31T01:19:07.684Z,29.17
2017-10-31T01:21:33.957Z,34.60
2017-10-31T01:24:00.099Z,25.20
2017-10-31T01:26:26.268Z,20.37
2017-10-31T01:28:52.494Z,14.03
2017-10-31T01:31:18.700Z,15.50
2017-10-31T01:33:45.613Z,14.40
2017-10-31T01:36:11.806Z,12.10
2017-10-31T01:38:37.980Z,8.70
2017-10-31T01:41:04.100Z,8.57
2017-10-31T01:43:30.305Z,6.13
2017-10-31T01:45:56.475Z,7.80
2017-10-31T01:48:22.661Z,5.80
2017-10-31T01:50:48.804Z,7.50
2017-10-31T01:53:14.935Z,8.07
2017-10-31T01:55:41.857Z,9.53
2017-10-31T01:58:08.104Z,2.97
2017-10-31T02:00:34.389Z,13.37
2017-10-31T02:03:00.624Z,3.00
2017-10-31T02:05:26.958Z,3.83
2017-10-31T02:07:53.141Z,14.77
2017-10-31T02:10:19.383Z,4.57
2017-10-31T02:12:45.582Z,3.37
2017-10-31T02:15:12.492Z,3.03
2017-10-31T02:17:38.707Z,3.23
2017-10-31T02:20:04.827Z,8.27
2017-10-31T02:22:30.966Z,5.43
2017-10-31T02:24:57.156Z,8.83
2017-10-31T02:27:23.400Z,6.90
2017-10-31T02:29:49.626Z,4.73
2017-10-31T02:32:15.739Z,9.90
2017-10-31T02:34:41.990Z,9.30
2017-10-31T02:37:08.115Z,7.07
2017-10-31T02:39:34.343Z,10.40
2017-10-31T02:42:00.537Z,2.27
2017-10-31T02:44:26.688Z,3.77
2017-10-31T02:46:52.925Z,3.60
2017-10-31T02:49:19.178Z,4.97
2017-10-31T02:51:46.130Z,8.20
2017-10-31T02:54:13.128Z,7.80
2017-10-31T02:56:39.300Z,3.57
2017-10-31T02:59:06.259Z,2.90
2017-10-31T03:01:32.435Z,2.27
2017-10-31T03:03:58.750Z,4.73
2017-10-31T03:06:24.993Z,9.53
2017-10-31T03:08:51.097Z,6.27
2017-10-31T03:11:17.429Z,5.47
2017-10-31T03:13:43.731Z,9.33
2017-10-31T03:16:10.032Z,7.33
2017-10-31T03:18:36.983Z,3.73
2017-10-31T03:21:03.827Z,6.23
2017-10-31T03:23:30.810Z,3.53
2017-10-31T03:25:56.959Z,13.13
2017-10-31T03:28:23.118Z,3.60
2017-10-31T03:30:50.056Z,9.67
2017-10-31T03:33:17.008Z,6.47
2017-10-31T03:35:43.862Z,5.60
2017-10-31T03:38:09.959Z,5.07
2017-10-31T03:40:36.910Z,5.33
2017-10-31T03:43:03.843Z,5.63
2017-10-31T03:45:30.131Z,2.90
2017-10-31T03:47:56.379Z,3.57
2017-10-31T03:50:22.607Z,3.90
2017-10-31T03:52:48.865Z,7.20
2017-10-31T03:55:15.074Z,7.67
2017-10-31T03:57:41.220Z,3.50
2017-10-31T04:00:07.514Z,4.73
2017-10-31T04:02:33.727Z,3.97
2017-10-31T04:04:59.843Z,7.60
2017-10-31T04:07:26.081Z,13.47
2017-10-31T04:09:52.266Z,2.97
2017-10-31T04:12:18.469Z,5.73
2017-10-31T04:14:45.359Z,2.93
2017-10-31T04:17:11.567Z,8.23
2017-10-31T04:19:37.815Z,4.00
2017-10-31T04:22:03.889Z,1.53
2017-10-31T04:24:30.777Z,2.63
2017-10-31T04:26:57.050Z,1.83
2017-10-31T04:29:23.188Z,2.70
2017-10-31T04:31:50.184Z,7.67
2017-10-31T04:34:16.278Z,1.90
2017-10-31T04:36:42.452Z,4.17
2017-10-31T04:39:08.745Z,2.83
2017-10-31T04:41:34.975Z,2.00
2017-10-31T04:44:01.126Z,2.27
2017-10-31T04:46:27.447Z,2.73
2017-10-31T04:48:53.659Z,0.97
2017-10-31T04:51:19.860Z,2.50
2017-10-31T04:53:46.266Z,3.10
2017-10-31T04:56:13.181Z,5.10
2017-10-31T04:58:39.402Z,4.43
2017-10-31T05:01:05.528Z,4.17
2017-10-31T05:03:31.780Z,5.00
2017-10-31T05:05:58.004Z,1.23
2017-10-31T05:08:24.180Z,2.10
2017-10-31T05:10:50.354Z,2.77
2017-10-31T05:13:16.545Z,3.53
2017-10-31T05:15:42.692Z,2.73
2017-10-31T05:18:08.857Z,1.37
2017-10-31T05:20:35.007Z,2.27
2017-10-31T05:23:01.274Z,3.23
2017-10-31T05:25:27.542Z,0.87
2017-10-31T05:27:53.686Z,1.10
2017-10-31T05:30:19.865Z,1.33
2017-10-31T05:32:45.988Z,1.47
2017-10-31T05:35:12.880Z,3.40
2017-10-31T05:37:39.037Z,2.93
2017-10-31T05:40:05.171Z,6.23
2017-10-31T05:42:31.370Z,2.63
2017-10-31T05:44:57.567Z,4.03
2017-10-31T05:47:23.763Z,3.50
2017-10-31T05:49:50.738Z,2.10
2017-10-31T05:52:16.914Z,2.83
2017-10-31T05:54:43.168Z,3.93
2017-10-31T05:57:10.073Z,6.33
2017-10-31T05:59:36.295Z,5.03
2017-10-31T06:02:02.418Z,2.43
2017-10-31T06:04:29.369Z,4.77
2017-10-31T06:06:55.604Z,5.30
2017-10-31T06:09:21.720Z,1.80
2017-10-31T06:11:47.968Z,2.17
2017-10-31T06:14:14.137Z,1.90
2017-10-31T06:16:40.333Z,8.73
2017-10-31T06:19:07.328Z,3.10
2017-10-31T06:21:39.727Z,1.80
2017-10-31T06:24:12.108Z,1.17
2017-10-31T06:26:44.594Z,2.50
2017-10-31T06:29:17.574Z,1.10
2017-10-31T06:31:50.495Z,0.70
2017-10-31T06:34:16.642Z,5.30
2017-10-31T06:36:42.935Z,1.03
2017-10-31T06:39:09.148Z,0.73
2017-10-31T06:41:36.155Z,3.60
2017-10-31T06:44:02.518Z,2.00
2017-10-31T06:46:29.517Z,1.40
2017-10-31T06:48:55.633Z,6.00
2017-10-31T06:51:21.833Z,2.20
2017-10-31T06:53:48.058Z,7.37
2017-10-31T06:56:14.298Z,0.77
2017-10-31T06:58:40.549Z,1.90
2017-10-31T07:01:06.667Z,1.77
2017-10-31T07:03:32.852Z,1.60
2017-10-31T07:05:59.168Z,1.13
2017-10-31T07:08:26.331Z,1.00
2017-10-31T07:10:52.540Z,4.00
2017-10-31T07:13:19.573Z,2.57
2017-10-31T07:15:45.902Z,4.13
2017-10-31T07:18:12.135Z,1.93
2017-10-31T07:20:38.861Z,1.43
2017-10-31T07:23:05.057Z,2.50
2017-10-31T07:25:31.254Z,1.47
2017-10-31T07:27:57.458Z,6.73
2017-10-31T07:30:24.390Z,1.30
2017-10-31T07:32:50.557Z,1.27
2017-10-31T07:35:16.917Z,5.70
2017-10-31T07:37:43.019Z,3.27
2017-10-31T07:40:09.300Z,6.60
2017-10-31T07:42:35.544Z,4.57
2017-10-31T07:45:02.505Z,1.23
2017-10-31T07:47:28.619Z,2.17
2017-10-31T07:49:55.542Z,8.30
2017-10-31T07:52:22.575Z,1.90
2017-10-31T07:54:48.739Z,2.50
2017-10-31T07:57:14.956Z,3.70
2017-10-31T07:59:41.945Z,6.20
2017-10-31T08:02:08.057Z,6.90
2017-10-31T08:04:34.272Z,9.77
2017-10-31T08:07:00.435Z,4.27
2017-10-31T08:09:26.747Z,2.20
2017-10-31T08:11:52.896Z,2.73
2017-10-31T08:14:19.138Z,1.20
2017-10-31T08:16:46.352Z,1.27
2017-10-31T08:19:12.545Z,4.00
2017-10-31T08:21:38.705Z,1.40
2017-10-31T08:24:04.907Z,3.33
2017-10-31T08:26:31.183Z,1.40
2017-10-31T08:28:58.169Z,1.27
2017-10-31T08:31:24.387Z,3.50
2017-10-31T08:33:50.618Z,3.30
2017-10-31T08:36:16.827Z,1.23
2017-10-31T08:38:43.942Z,1.80
2017-10-31T08:41:10.508Z,1.57
2017-10-31T08:43:36.854Z,2.27
2017-10-31T08:46:03.108Z,1.20
2017-10-31T08:48:29.344Z,10.00
2017-10-31T08:50:55.592Z,1.20
2017-10-31T08:53:22.039Z,2.00
2017-10-31T08:55:49.102Z,4.93
2017-10-31T08:58:16.063Z,4.03
2017-10-31T09:00:42.301Z,1.80
2017-10-31T09:03:08.561Z,2.67
2017-10-31T09:05:34.824Z,1.33
2017-10-31T09:08:01.867Z,2.47
2017-10-31T09:10:28.918Z,1.13
2017-10-31T09:12:55.128Z,3.70
2017-10-31T09:15:21.350Z,3.20
2017-10-31T09:17:47.573Z,0.63
2017-10-31T09:20:13.807Z,2.60
2017-10-31T09:22:40.077Z,2.53
2017-10-31T09:25:06.304Z,1.60
2017-10-31T09:27:32.477Z,1.43
2017-10-31T09:29:58.623Z,1.00
2017-10-31T09:32:25.598Z,0.73
2017-10-31T09:34:51.862Z,1.30
2017-10-31T09:37:18.025Z,1.80
2017-10-31T09:39:45.006Z,2.10
2017-10-31T09:42:11.286Z,3.33
2017-10-31T09:44:37.483Z,3.43
2017-10-31T09:47:03.601Z,4.50
2017-10-31T09:49:29.846Z,1.90
2017-10-31T09:51:56.081Z,3.00
2017-10-31T09:54:22.267Z,2.40
2017-10-31T09:56:48.470Z,1.90
2017-10-31T09:59:14.636Z,1.80
2017-10-31T10:01:40.920Z,1.40
2017-10-31T10:04:07.790Z,2.33
2017-10-31T10:06:33.936Z,0.80
2017-10-31T10:09:00.125Z,2.47
2017-10-31T10:11:26.388Z,1.00
2017-10-31T10:13:53.347Z,0.80
2017-10-31T10:16:19.587Z,0.67
2017-10-31T10:18:45.814Z,1.27
2017-10-31T10:21:12.810Z,6.13
2017-10-31T10:23:39.004Z,0.80
2017-10-31T10:26:06.077Z,2.03
2017-10-31T10:28:32.282Z,0.80
2017-10-31T10:30:59.146Z,2.50
2017-10-31T10:33:25.322Z,0.73
2017-10-31T10:35:51.697Z,1.57
2017-10-31T10:38:17.892Z,1.37
2017-10-31T10:40:44.861Z,0.63
2017-10-31T10:43:11.060Z,0.97
2017-10-31T10:45:37.996Z,2.70
2017-10-31T10:48:04.969Z,1.33
2017-10-31T10:50:31.150Z,1.13
2017-10-31T10:52:57.494Z,2.77
2017-10-31T10:55:23.660Z,0.57
2017-10-31T10:57:49.903Z,0.70
2017-10-31T11:00:16.265Z,1.50
2017-10-31T11:02:42.648Z,1.47
2017-10-31T11:05:08.985Z,0.80
2017-10-31T11:07:35.200Z,0.77
2017-10-31T11:10:01.467Z,0.57
2017-10-31T11:12:27.609Z,0.60
2017-10-31T11:14:54.553Z,2.57
2017-10-31T11:17:21.693Z,0.90
2017-10-31T11:19:47.796Z,3.90
2017-10-31T11:22:13.925Z,0.50
2017-10-31T11:24:40.107Z,0.70
2017-10-31T11:27:06.942Z,0.50
2017-10-31T11:29:34.023Z,9.00
2017-10-31T11:32:00.260Z,3.97
2017-10-31T11:34:26.483Z,2.40
2017-10-31T11:36:52.623Z,2.07
2017-10-31T11:39:18.802Z,1.10
2017-10-31T11:41:45.095Z,1.90
2017-10-31T11:44:11.369Z,0.60
2017-10-31T11:46:37.685Z,0.67
2017-10-31T11:49:04.620Z,2.47
2017-10-31T11:51:30.898Z,1.40
2017-10-31T11:53:57.191Z,0.70
2017-10-31T11:56:23.530Z,2.10
2017-10-31T11:58:49.778Z,4.60
2017-10-31T12:01:15.990Z,4.10
2017-10-31T12:03:42.206Z,3.13
2017-10-31T12:06:08.432Z,4.10
2017-10-31T12:08:34.653Z,1.43
2017-10-31T12:11:00.927Z,2.60
2017-10-31T12:13:27.168Z,1.83
2017-10-31T12:15:53.511Z,2.40
2017-10-31T12:18:19.673Z,4.10
2017-10-31T12:20:46.291Z,0.93
2017-10-31T12:23:13.212Z,1.33
2017-10-31T12:25:39.525Z,0.93
2017-10-31T12:28:05.878Z,1.10
2017-10-31T12:30:32.809Z,6.30
2017-10-31T12:32:59.119Z,3.33
2017-10-31T12:35:25.438Z,3.27
2017-10-31T12:37:51.688Z,1.17
2017-10-31T12:40:17.967Z,2.30
2017-10-31T12:42:44.559Z,1.43
2017-10-31T12:45:10.883Z,0.77
2017-10-31T12:47:38.050Z,1.37
2017-10-31T12:50:05.092Z,3.30
2017-10-31T12:52:31.395Z,2.00
2017-10-31T12:54:57.590Z,1.40
2017-10-31T12:57:23.816Z,1.00
2017-10-31T12:59:50.171Z,1.47
2017-10-31T13:02:16.567Z,2.83
2017-10-31T13:04:42.847Z,0.63
2017-10-31T13:07:08.999Z,3.10
2017-10-31T13:09:36.103Z,1.50
2017-10-31T13:12:02.401Z,2.73
2017-10-31T13:14:28.818Z,0.87
2017-10-31T13:16:55.532Z,1.30
2017-10-31T13:19:22.637Z,1.13
2017-10-31T13:21:48.905Z,0.50
2017-10-31T13:24:15.821Z,3.60
2017-10-31T13:26:42.737Z,1.17
2017-10-31T13:29:09.553Z,1.30
2017-10-31T13:31:36.350Z,0.93
2017-10-31T13:34:03.989Z,2.00
2017-10-31T13:36:30.815Z,1.40
2017-10-31T13:38:57.627Z,18.23
2017-10-31T13:41:26.297Z,1.70
2017-10-31T13:43:53.262Z,25.57
2017-10-31T13:46:20.237Z,10.00
2017-10-31T13:48:46.827Z,3.93
2017-10-31T13:51:14.477Z,0.83
2017-10-31T13:53:40.823Z,2.30
2017-10-31T13:56:07.848Z,1.90
2017-10-31T13:58:34.120Z,1.50
2017-10-31T14:01:00.955Z,0.70
2017-10-31T14:03:27.694Z,0.80
2017-10-31T14:05:54.594Z,0.83
2017-10-31T14:08:22.246Z,0.80
2017-10-31T14:10:49.209Z,1.80
2017-10-31T14:13:15.397Z,0.97
2017-10-31T14:15:41.793Z,0.50
2017-10-31T14:18:08.539Z,0.90
2017-10-31T14:20:35.736Z,1.13
2017-10-31T14:23:02.011Z,3.23
2017-10-31T14:25:28.993Z,23.67
2017-10-31T14:27:55.294Z,12.67
2017-10-31T14:30:21.453Z,4.80
2017-10-31T14:32:47.580Z,9.93
2017-10-31T14:35:13.814Z,5.60
2017-10-31T14:37:39.950Z,4.13
2017-10-31T14:40:06.163Z,2.87
2017-10-31T14:42:32.470Z,1.10
2017-10-31T14:44:58.926Z,1.40
2017-10-31T14:47:25.089Z,2.00
2017-10-31T14:49:52.138Z,2.07
2017-10-31T14:52:19.022Z,2.60
2017-10-31T14:54:45.262Z,1.70
2017-10-31T14:57:11.605Z,1.47
2017-10-31T14:59:37.797Z,3.27
2017-10-31T15:02:03.970Z,1.60
2017-10-31T15:04:30.967Z,3.63
2017-10-31T15:06:57.185Z,1.67
2017-10-31T15:09:23.421Z,1.13
2017-10-31T15:11:49.692Z,1.50
2017-10-31T15:14:15.939Z,5.10
2017-10-31T15:16:42.936Z,1.43
2017-10-31T15:19:09.057Z,5.63
2017-10-31T15:21:35.251Z,1.43
2017-10-31T15:24:01.556Z,1.87
2017-10-31T15:26:28.692Z,1.77
2017-10-31T15:28:55.684Z,5.17
2017-10-31T15:31:21.883Z,1.50
2017-10-31T15:33:48.751Z,4.73
2017-10-31T15:36:14.973Z,1.80
2017-10-31T15:38:41.198Z,3.80
2017-10-31T15:41:07.414Z,1.93
2017-10-31T15:43:33.734Z,2.13
2017-10-31T15:46:00.726Z,2.20
2017-10-31T15:48:26.924Z,3.90
2017-10-31T15:50:53.208Z,2.70
2017-10-31T15:53:19.501Z,3.43
2017-10-31T15:55:45.675Z,1.80
2017-10-31T15:58:11.797Z,3.07
2017-10-31T16:00:38.796Z,2.33
2017-10-31T16:03:04.965Z,3.23
2017-10-31T16:05:31.114Z,3.80
2017-10-31T16:07:58.083Z,4.40
2017-10-31T16:10:24.306Z,2.70
2017-10-31T16:12:50.932Z,2.50
2017-10-31T16:15:17.229Z,2.60
2017-10-31T16:17:43.407Z,3.20
2017-10-31T16:20:09.566Z,2.60
2017-10-31T16:22:35.790Z,3.33
2017-10-31T16:25:01.971Z,6.83
2017-10-31T16:27:28.099Z,9.53
2017-10-31T16:29:54.371Z,12.63
2017-10-31T16:32:20.518Z,7.30
2017-10-31T16:34:47.517Z,7.30
2017-10-31T16:37:13.697Z,6.33
2017-10-31T16:39:40.649Z,4.63
2017-10-31T16:42:07.863Z,6.03
2017-10-31T16:44:34.048Z,6.47
2017-10-31T16:47:00.247Z,9.93
2017-10-31T16:49:27.336Z,4.10
2017-10-31T16:51:53.564Z,3.73
2017-10-31T16:54:19.753Z,5.23
2017-10-31T16:56:45.894Z,5.13
2017-10-31T16:59:12.235Z,7.07
2017-10-31T17:01:38.413Z,5.23
2017-10-31T17:04:05.645Z,6.37
2017-10-31T17:06:32.056Z,11.00
2017-10-31T17:08:58.286Z,4.67
2017-10-31T17:11:24.494Z,4.77
2017-10-31T17:13:50.664Z,8.20
2017-10-31T17:16:16.968Z,8.00
2017-10-31T17:18:43.142Z,4.93
2017-10-31T17:21:10.070Z,8.50
2017-10-31T17:23:37.106Z,5.57
2017-10-31T17:26:03.315Z,6.10
2017-10-31T17:28:29.575Z,5.23
2017-10-31T17:30:55.844Z,7.30
2017-10-31T17:33:22.131Z,6.80
2017-10-31T17:35:49.337Z,4.30
2017-10-31T17:38:15.495Z,4.10
2017-10-31T17:40:41.627Z,5.70
2017-10-31T17:43:08.595Z,4.93
2017-10-31T17:45:34.780Z,2.73
2017-10-31T17:48:01.008Z,6.07
2017-10-31T17:50:27.243Z,6.43
2017-10-31T17:52:53.502Z,3.10
2017-10-31T17:55:19.728Z,2.80
2017-10-31T17:57:45.963Z,4.87
2017-10-31T18:00:12.234Z,3.87
2017-10-31T18:02:38.430Z,5.03
2017-10-31T18:05:04.610Z,2.60
2017-10-31T18:07:31.601Z,4.40
2017-10-31T18:09:57.896Z,5.17
2017-10-31T18:12:24.836Z,3.47
2017-10-31T18:14:51.728Z,3.23
2017-10-31T18:17:18.335Z,4.00
2017-10-31T18:19:44.496Z,5.13
2017-10-31T18:22:10.738Z,8.80
2017-10-31T18:24:36.948Z,11.47
2017-10-31T18:27:03.128Z,7.20
2017-10-31T18:29:29.427Z,8.60
2017-10-31T18:31:55.635Z,9.80
2017-10-31T18:34:21.974Z,8.93
2017-10-31T18:36:48.335Z,4.53
2017-10-31T18:39:15.274Z,3.87
2017-10-31T18:41:42.174Z,6.63
2017-10-31T18:44:08.504Z,4.27
2017-10-31T18:46:34.692Z,7.17
2017-10-31T18:49:00.969Z,9.20
2017-10-31T18:51:27.266Z,18.13
2017-10-31T18:53:53.630Z,10.40
2017-10-31T18:56:19.770Z,16.33
2017-10-31T18:58:46.073Z,10.93
2017-10-31T19:01:12.348Z,6.30
2017-10-31T19:03:38.830Z,14.40
2017-10-31T19:06:05.040Z,11.20
2017-10-31T19:08:31.270Z,6.83
2017-10-31T19:10:57.462Z,6.93
2017-10-31T19:13:24.378Z,9.33
2017-10-31T19:15:50.704Z,12.03
2017-10-31T19:18:16.923Z,9.57
2017-10-31T19:20:43.144Z,9.10
2017-10-31T19:23:09.451Z,9.53
2017-10-31T19:25:35.817Z,12.97
2017-10-31T19:28:02.976Z,6.93
2017-10-31T19:30:29.954Z,8.87
2017-10-31T19:32:56.353Z,19.90
2017-10-31T19:35:23.247Z,14.73
2017-10-31T19:37:49.467Z,14.20
2017-10-31T19:40:15.707Z,12.93
2017-10-31T19:42:41.938Z,8.57
2017-10-31T19:45:08.203Z,12.73
2017-10-31T19:47:35.122Z,9.23
2017-10-31T19:50:01.520Z,9.53
2017-10-31T19:52:27.714Z,8.73
2017-10-31T19:54:54.778Z,8.20
2017-10-31T19:57:20.974Z,7.77
2017-10-31T19:59:48.879Z,6.07
2017-10-31T20:02:15.076Z,8.00
2017-10-31T20:04:42.029Z,14.33
2017-10-31T20:07:09.108Z,9.53
2017-10-31T20:09:35.375Z,11.37
2017-10-31T20:12:02.579Z,10.10
2017-10-31T20:14:29.102Z,6.17
2017-10-31T20:16:55.273Z,9.97
2017-10-31T20:19:21.518Z,8.03
2017-10-31T20:21:47.646Z,10.57
2017-10-31T20:24:14.545Z,7.90
2017-10-31T20:26:40.800Z,12.63
2017-10-31T20:29:07.927Z,8.97
2017-10-31T20:31:34.218Z,9.93
2017-10-31T20:34:00.370Z,7.80
2017-10-31T20:36:27.026Z,8.23
2017-10-31T20:38:53.386Z,11.73
2017-10-31T20:41:19.609Z,8.70
2017-10-31T20:43:45.880Z,11.50
2017-10-31T20:46:12.185Z,13.73
2017-10-31T20:48:39.635Z,18.13
2017-10-31T20:51:06.696Z,9.13
2017-10-31T20:53:33.011Z,12.87
2017-10-31T20:55:59.317Z,11.63
2017-10-31T20:58:25.600Z,16.20
2017-10-31T21:00:51.844Z,10.83
2017-10-31T21:03:18.111Z,11.93
2017-10-31T21:05:44.454Z,25.33
2017-10-31T21:08:11.394Z,16.50
2017-10-31T21:10:38.304Z,30.50
2017-10-31T21:13:04.481Z,10.43
2017-10-31T21:15:30.748Z,11.33
2017-10-31T21:17:56.870Z,12.10
2017-10-31T21:20:23.068Z,6.13
2017-10-31T21:22:49.288Z,6.97
2017-10-31T21:25:15.514Z,12.90
2017-10-31T21:27:41.653Z,8.63
2017-10-31T21:30:07.827Z,9.90
2017-10-31T21:32:34.031Z,11.30
2017-10-31T21:35:00.213Z,9.00
2017-10-31T21:37:26.375Z,8.47
2017-10-31T21:39:52.608Z,17.03
2017-10-31T21:42:18.841Z,10.80
2017-10-31T21:44:45.291Z,10.60
2017-10-31T21:47:11.453Z,15.93
2017-10-31T21:49:37.639Z,9.53
2017-10-31T21:52:03.822Z,9.73
2017-10-31T21:54:29.985Z,10.70
2017-10-31T21:56:56.157Z,9.40
2017-10-31T21:59:22.592Z,11.43
2017-10-31T22:01:48.830Z,10.53
2017-10-31T22:04:14.940Z,5.80
2017-10-31T22:06:41.083Z,14.60
2017-10-31T22:09:07.337Z,11.00
2017-10-31T22:11:33.637Z,6.90
2017-10-31T22:13:59.882Z,9.27
2017-10-31T22:16:25.983Z,6.90
2017-10-31T22:18:52.159Z,10.40
2017-10-31T22:21:18.253Z,8.40
2017-10-31T22:23:44.374Z,7.80
2017-10-31T22:26:10.564Z,7.93
2017-10-31T22:28:36.764Z,7.73
2017-10-31T22:31:03.016Z,5.67
2017-10-31T22:33:29.167Z,7.43
2017-10-31T22:35:55.424Z,5.30
2017-10-31T22:38:21.599Z,7.30
2017-10-31T22:40:47.729Z,13.30
2017-10-31T22:43:13.994Z,6.70
2017-10-31T22:45:40.188Z,9.40
2017-10-31T22:48:06.574Z,7.70
2017-10-31T22:50:33.557Z,10.53
2017-10-31T22:52:59.858Z,6.40
2017-10-31T22:55:26.823Z,8.70
2017-10-31T22:57:53.048Z,6.63
2017-10-31T23:00:19.365Z,7.10
2017-10-31T23:02:45.492Z,4.80
2017-10-31T23:05:11.646Z,5.53
2017-10-31T23:07:37.923Z,11.10
2017-10-31T23:10:04.127Z,12.53
2017-10-31T23:12:30.360Z,5.40
2017-10-31T23:14:56.571Z,7.07
2017-10-31T23:17:22.709Z,6.37
2017-10-31T23:19:48.872Z,7.80
2017-10-31T23:22:15.702Z,10.17
2017-10-31T23:24:42.724Z,8.20
2017-10-31T23:27:08.963Z,7.37
2017-10-31T23:29:35.303Z,4.53
2017-10-31T23:32:02.235Z,5.93
2017-10-31T23:34:28.381Z,7.77
2017-10-31T23:36:55.312Z,6.23
2017-10-31T23:39:22.188Z,4.10
2017-10-31T23:41:48.467Z,5.67
2017-10-31T23:44:14.718Z,5.07
2017-10-31T23:46:41.646Z,8.17
2017-10-31T23:49:07.880Z,6.93
2017-10-31T23:51:34.879Z,6.73
2017-10-31T23:54:01.013Z,6.10
2017-10-31T23:56:27.433Z,4.53
2017-10-31T23:58:53.654Z,4.37
